Time;durP1;ratioP1;P1;durP2;ratioP2;P2;SDS_P1;SDS_P2;PMS_P1;PMS_P2;Temp;Humidity;BMP_temperature;BMP_pressure;BME280_temperature;BME280_humidity;BME280_pressure;Samples;Min_cycle;Max_cycle;Signal;HPM_P1;HPM_P2
2022/06/20 00:01:38;;;;;;;20.80;10.13;;;;;;;36.20;44.54;101229.50;5031933;28;20443;-79
2022/06/20 00:04:05;;;;;;;16.67;10.00;;;;;;;36.13;44.97;101230.94;5031437;28;20924;-80
2022/06/20 00:06:31;;;;;;;13.20;7.70;;;;;;;36.10;44.70;101226.13;5031715;28;20510;-78
2022/06/20 00:08:57;;;;;;;16.33;8.80;;;;;;;36.08;44.99;101215.56;5031512;28;20455;-77
2022/06/20 00:11:32;;;;;;;16.43;9.20;;;;;;;35.96;45.47;101225.94;5031645;28;20935;-77
2022/06/20 00:13:58;;;;;;;21.90;9.40;;;;;;;35.78;45.40;101219.31;5031433;28;20512;-77
2022/06/20 00:16:24;;;;;;;18.83;9.10;;;;;;;35.98;45.33;101221.91;5031490;28;20471;-78
2022/06/20 00:18:51;;;;;;;21.43;8.83;;;;;;;35.97;44.70;101214.88;5031282;28;20443;-78
2022/06/20 00:21:20;;;;;;;15.93;7.53;;;;;;;36.10;45.03;101215.31;5031307;28;20814;-78
2022/06/20 00:23:47;;;;;;;17.13;9.23;;;;;;;35.94;44.91;101214.63;5031463;28;20525;-78
2022/06/20 00:26:14;;;;;;;17.80;10.13;;;;;;;35.89;45.22;101209.25;5031206;28;20419;-77
2022/06/20 00:28:41;;;;;;;18.40;9.67;;;;;;;35.91;45.45;101213.31;5030338;28;20464;-78
2022/06/20 00:31:07;;;;;;;16.20;9.27;;;;;;;35.89;45.77;101204.66;5031335;28;20423;-78
2022/06/20 00:33:33;;;;;;;16.20;8.90;;;;;;;35.97;45.60;101206.78;5031137;28;20925;-80
2022/06/20 00:36:00;;;;;;;14.50;9.57;;;;;;;36.02;45.56;101200.50;5031129;28;20416;-77
2022/06/20 00:38:27;;;;;;;16.00;8.30;;;;;;;35.89;45.77;101196.56;5031130;28;20423;-77
2022/06/20 00:41:00;;;;;;;17.80;8.90;;;;;;;36.00;45.89;101189.22;5031135;28;20923;-77
2022/06/20 00:43:41;;;;;;;18.10;9.17;;;;;;;36.03;45.43;101189.44;5031049;28;20416;-77
2022/06/20 00:46:19;;;;;;;19.93;9.00;;;;;;;35.99;45.62;101188.41;5031173;28;20412;-79
2022/06/20 00:49:13;;;;;;;20.23;9.20;;;;;;;35.97;45.52;101182.50;5031012;28;20459;-78
2022/06/20 00:51:49;;;;;;;17.60;8.93;;;;;;;35.96;45.72;101180.06;5030920;28;20985;-80
2022/06/20 00:54:41;;;;;;;15.83;7.80;;;;;;;35.75;45.79;101174.03;5031075;28;20415;-79
2022/06/20 00:57:31;;;;;;;18.13;9.17;;;;;;;35.70;46.64;101177.56;5030934;28;20936;-78
2022/06/20 01:00:14;;;;;;;18.50;10.03;;;;;;;35.77;46.30;101179.94;5030837;28;20473;-79
2022/06/20 01:02:55;;;;;;;16.20;8.50;;;;;;;35.65;46.32;101177.59;5031023;28;20423;-78
2022/06/20 01:05:32;;;;;;;13.90;7.90;;;;;;;35.74;46.07;101177.81;5030469;28;20461;-77
2022/06/20 01:08:07;;;;;;;21.07;10.60;;;;;;;35.49;47.06;101176.94;5031025;28;20459;-77
2022/06/20 01:11:06;;;;;;;18.97;9.87;;;;;;;35.55;47.00;101174.19;5030297;28;20427;-77
2022/06/20 01:13:33;;;;;;;23.93;9.80;;;;;;;35.49;46.87;101171.53;5010066;28;20463;-77
2022/06/20 01:16:24;;;;;;;20.20;9.43;;;;;;;35.57;47.17;101180.91;5031007;28;20501;-77
2022/06/20 01:18:51;;;;;;;16.80;9.93;;;;;;;35.49;46.64;101176.13;5030671;28;20454;-77
2022/06/20 01:21:24;;;;;;;16.60;9.60;;;;;;;35.47;46.67;101179.09;5030766;28;20494;-77
2022/06/20 01:23:59;;;;;;;23.53;9.47;;;;;;;35.46;46.95;101179.38;5030780;28;20939;-78
2022/06/20 01:26:47;;;;;;;14.07;9.10;;;;;;;35.50;47.36;101177.72;5030648;28;20465;-78
2022/06/20 01:29:13;;;;;;;21.07;10.20;;;;;;;35.66;46.50;101168.41;5032194;28;20467;-78
2022/06/20 01:31:46;;;;;;;22.33;10.33;;;;;;;35.74;46.12;101167.81;5030747;28;20438;-80
2022/06/20 01:34:16;;;;;;;21.83;10.50;;;;;;;35.75;46.51;101177.53;5030638;28;20458;-77
2022/06/20 01:39:34;;;;;;;18.30;9.50;;;;;;;35.88;46.19;101183.34;5032852;28;20812;-77
2022/06/20 01:42:18;;;;;;;26.97;10.83;;;;;;;35.89;45.46;101180.34;5036003;28;20392;-78
2022/06/20 01:44:46;;;;;;;27.47;8.70;;;;;;;35.76;46.47;101175.63;5034389;28;20415;-78
2022/06/20 01:47:13;;;;;;;15.53;9.03;;;;;;;35.78;46.37;101184.22;5034247;28;20454;-78
2022/06/20 01:49:41;;;;;;;24.00;10.03;;;;;;;35.69;46.33;101175.94;5033946;28;20463;-78
2022/06/20 01:52:44;;;;;;;15.53;9.00;;;;;;;35.83;45.63;101183.38;5033930;28;20427;-78
2022/06/20 01:55:16;;;;;;;18.03;9.20;;;;;;;35.75;46.30;101188.31;5034124;28;20808;-78
2022/06/20 01:57:45;;;;;;;21.13;8.87;;;;;;;35.82;45.61;101184.47;5033994;28;20481;-77
2022/06/20 02:00:19;;;;;;;24.97;8.53;;;;;;;35.80;46.22;101184.78;5034229;28;20443;-77
2022/06/20 02:02:50;;;;;;;20.80;9.03;;;;;;;35.78;45.68;101182.34;5034197;28;20979;-78
2022/06/20 02:05:20;;;;;;;22.43;8.53;;;;;;;35.82;45.95;101187.97;5033842;28;20473;-78
2022/06/20 02:07:46;;;;;;;21.47;10.10;;;;;;;35.79;45.70;101178.56;5035517;28;20458;-78
2022/06/20 02:10:21;;;;;;;21.30;12.77;;;;;;;35.74;46.22;101172.41;5033743;28;20426;-78
2022/06/20 02:12:49;;;;;;;20.17;10.63;;;;;;;35.83;45.53;101162.59;5033363;28;20985;-78
2022/06/20 02:15:18;;;;;;;21.97;10.30;;;;;;;35.65;45.63;101161.41;5033675;28;20427;-77
2022/06/20 02:17:46;;;;;;;14.73;8.67;;;;;;;35.73;46.24;101160.00;5035364;28;20431;-78
2022/06/20 02:20:23;;;;;;;21.40;10.33;;;;;;;35.76;46.37;101157.53;5033559;28;20863;-80
2022/06/20 02:22:52;;;;;;;15.03;9.47;;;;;;;35.85;45.47;101159.59;5034819;28;20404;-80
2022/06/20 02:25:26;;;;;;;16.10;8.80;;;;;;;35.46;45.63;101150.50;5033471;28;20455;-80
2022/06/20 02:28:07;;;;;;;13.13;8.77;;;;;;;35.48;45.46;101156.44;5033414;28;20838;-80
2022/06/20 02:30:34;;;;;;;24.53;11.50;;;;;;;35.53;45.92;101153.69;5034989;28;20490;-80
2022/06/20 02:33:25;;;;;;;17.43;11.00;;;;;;;35.53;46.19;101152.88;5033298;28;20934;-80
2022/06/20 02:35:54;;;;;;;20.00;10.77;;;;;;;35.34;46.48;101154.63;5017126;28;20916;-80
2022/06/20 02:38:21;;;;;;;23.97;11.20;;;;;;;35.55;46.31;101144.53;5033343;28;20458;-80
2022/06/20 02:40:50;;;;;;;17.93;9.13;;;;;;;35.63;46.09;101144.69;5034942;28;20450;-80
2022/06/20 02:43:28;;;;;;;13.80;8.83;;;;;;;35.65;45.47;101147.09;5034496;28;20395;-80
2022/06/20 02:45:59;;;;;;;22.97;10.13;;;;;;;35.60;45.83;101158.75;5034413;28;20895;-80
2022/06/20 02:48:35;;;;;;;28.83;11.20;;;;;;;35.75;45.36;101160.53;5016923;28;20553;-80
2022/06/20 02:51:06;;;;;;;20.30;9.40;;;;;;;35.66;45.37;101170.31;5032030;28;20920;-79
2022/06/20 02:53:49;;;;;;;29.03;12.07;;;;;;;35.57;46.08;101164.72;5033028;28;20415;-80
2022/06/20 02:56:20;;;;;;;23.97;9.03;;;;;;;35.46;45.86;101163.19;5032951;28;20850;-79
2022/06/20 02:59:18;;;;;;;16.43;9.30;;;;;;;35.59;45.07;101165.22;5034522;28;20432;-80
2022/06/20 03:02:06;;;;;;;22.80;9.83;;;;;;;35.67;45.62;101161.16;5033191;28;20424;-80
2022/06/20 03:04:46;;;;;;;14.47;9.27;;;;;;;35.68;45.33;101154.66;5032894;28;20427;-80
2022/06/20 03:07:19;;;;;;;15.53;9.97;;;;;;;35.50;45.36;101161.53;5016361;28;20784;-79
2022/06/20 03:09:49;;;;;;;23.50;11.10;;;;;;;35.59;45.34;101157.13;5032629;28;20466;-80
2022/06/20 03:12:16;;;;;;;12.57;8.57;;;;;;;35.51;45.92;101166.66;5032425;28;20450;-80
2022/06/20 03:15:04;;;;;;;21.50;11.87;;;;;;;35.72;45.59;101169.16;5033891;28;20442;-78
2022/06/20 03:17:30;;;;;;;13.60;10.47;;;;;;;35.63;45.96;101171.69;5032531;28;20454;-78
2022/06/20 03:20:00;;;;;;;19.03;10.43;;;;;;;35.74;45.63;101178.63;5032239;28;20562;-79
2022/06/20 03:22:36;;;;;;;27.17;11.50;;;;;;;35.76;45.17;101184.53;5032356;28;20416;-78
2022/06/20 03:25:03;;;;;;;22.13;10.73;;;;;;;35.72;45.28;101180.78;5032428;28;20425;-77
2022/06/20 03:27:33;;;;;;;13.23;8.70;;;;;;;35.68;45.02;101182.44;5033685;28;20443;-78
2022/06/20 03:30:20;;;;;;;22.23;10.17;;;;;;;35.79;45.48;101186.66;5032580;28;20423;-78
2022/06/20 03:32:47;;;;;;;25.63;10.73;;;;;;;35.68;45.60;101181.63;5032265;28;20443;-78
2022/06/20 03:35:13;;;;;;;13.60;9.07;;;;;;;35.67;45.62;101180.03;5032223;28;20481;-80
2022/06/20 03:37:40;;;;;;;19.00;11.13;;;;;;;35.70;45.78;101184.84;5032378;28;20503;-80
2022/06/20 03:40:06;;;;;;;23.47;10.73;;;;;;;35.68;45.45;101189.75;5031834;28;20525;-78
2022/06/20 03:42:33;;;;;;;17.03;10.20;;;;;;;35.73;45.39;101190.50;5032085;28;20423;-78
2022/06/20 03:45:02;;;;;;;16.23;11.27;;;;;;;35.83;45.39;101183.38;5032218;28;21039;-77
2022/06/20 03:47:34;;;;;;;18.63;10.03;;;;;;;35.67;45.58;101196.22;5031940;28;20497;-80
2022/06/20 03:50:10;;;;;;;21.73;7.93;;;;;;;35.75;45.82;101193.72;5031620;28;20435;-79
2022/06/20 03:52:51;;;;;;;18.30;8.90;;;;;;;35.65;45.71;101191.09;5031870;28;20446;-79
2022/06/20 03:55:41;;;;;;;16.93;9.30;;;;;;;35.77;45.10;101191.53;5031868;28;20506;-77
2022/06/20 03:58:16;;;;;;;11.90;8.00;;;;;;;35.67;44.97;101190.81;5031249;28;20535;-77
2022/06/20 04:00:50;;;;;;;12.70;8.33;;;;;;;35.64;44.51;101208.38;5031759;28;20427;-77
2022/06/20 04:03:26;;;;;;;19.83;10.43;;;;;;;35.61;45.00;101210.84;5032984;28;20876;-78
2022/06/20 04:06:00;;;;;;;19.80;9.53;;;;;;;35.72;44.55;101221.25;5031658;28;20927;-78
2022/06/20 04:11:38;;;;;;;14.80;9.80;;;;;;;35.83;44.70;101224.69;5032832;28;20954;-78
2022/06/20 04:14:22;;;;;;;12.73;9.50;;;;;;;35.91;44.41;101215.16;5033174;28;20505;-77
2022/06/20 04:18:26;;;;;;;16.23;10.00;;;;;;;35.85;44.01;101227.94;5031499;28;20423;-78
2022/06/20 04:19:47;;;;;;;24.00;12.00;;;;;;;35.92;44.25;101225.72;5032348;28;20855;-80
2022/06/20 04:22:19;;;;;;;16.83;9.40;;;;;;;35.96;43.43;101225.94;5031424;28;20465;-80
2022/06/20 04:25:05;;;;;;;17.20;10.40;;;;;;;35.98;43.72;101223.78;5031300;28;20444;-80
2022/06/20 04:27:53;;;;;;;23.00;10.70;;;;;;;36.04;44.14;101223.47;5031183;28;20510;-80
2022/06/20 04:30:44;;;;;;;21.20;11.53;;;;;;;35.97;44.47;101235.66;5031361;28;20928;-80
2022/06/20 04:33:23;;;;;;;20.90;11.67;;;;;;;35.94;44.45;101238.94;5031263;28;20431;-80
2022/06/20 04:36:04;;;;;;;15.90;10.70;;;;;;;35.99;43.55;101239.69;5031157;28;20427;-80
2022/06/20 04:38:38;;;;;;;18.37;10.63;;;;;;;36.08;44.32;101239.06;5032893;28;20491;-78
2022/06/20 04:41:17;;;;;;;16.60;10.00;;;;;;;36.04;44.49;101246.97;5031465;28;20427;-78
2022/06/20 04:44:23;;;;;;;17.33;10.17;;;;;;;36.11;44.49;101249.31;5031148;28;20431;-77
2022/06/20 04:47:10;;;;;;;20.00;12.63;;;;;;;36.16;43.96;101270.88;5023201;28;20457;-77
2022/06/20 04:49:38;;;;;;;16.07;10.53;;;;;;;36.14;44.15;101264.94;5031004;28;20516;-78
2022/06/20 04:52:09;;;;;;;22.73;12.17;;;;;;;36.18;43.90;101271.41;5030773;28;20427;-78
2022/06/20 04:54:35;;;;;;;26.90;11.87;;;;;;;36.20;44.32;101275.41;5031095;28;20419;-78
2022/06/20 04:57:02;;;;;;;20.13;11.23;;;;;;;36.22;44.28;101278.66;5030726;28;20415;-78
2022/06/20 04:59:30;;;;;;;15.93;8.93;;;;;;;36.26;44.42;101278.88;5031231;28;20434;-78
2022/06/20 05:01:59;;;;;;;23.50;11.23;;;;;;;36.25;44.38;101279.97;5032161;28;20994;-79
2022/06/20 05:04:41;;;;;;;25.90;11.43;;;;;;;36.22;44.20;101284.06;5030904;28;20769;-77
2022/06/20 05:07:18;;;;;;;21.90;13.37;;;;;;;36.20;44.70;101285.41;5030884;28;20420;-77
2022/06/20 05:10:13;;;;;;;27.50;11.50;;;;;;;36.19;45.01;101284.63;5030782;28;20828;-78
2022/06/20 05:12:50;;;;;;;28.20;13.10;;;;;;;36.20;44.81;101285.41;5018171;28;20458;-78
2022/06/20 05:15:19;;;;;;;14.33;11.40;;;;;;;36.20;44.83;101290.81;5032351;28;20465;-78
2022/06/20 05:17:48;;;;;;;24.10;11.03;;;;;;;36.13;44.27;101298.44;5034076;28;20434;-80
2022/06/20 05:20:35;;;;;;;25.80;14.90;;;;;;;36.09;44.52;101305.50;5035218;28;20548;-80
2022/06/20 05:23:26;;;;;;;29.13;11.00;;;;;;;36.16;44.07;101309.50;5034043;28;20459;-78
2022/06/20 05:25:54;;;;;;;21.97;11.17;;;;;;;36.16;44.20;101308.69;5033900;28;20414;-79
2022/06/20 05:28:24;;;;;;;20.07;12.63;;;;;;;36.22;44.39;101307.56;5033892;28;20458;-78
2022/06/20 05:30:51;;;;;;;16.00;11.40;;;;;;;36.22;44.34;101307.56;5034915;28;20420;-77
2022/06/20 05:33:52;;;;;;;29.40;15.20;;;;;;;36.27;44.33;101305.59;5034715;28;20423;-77
2022/06/20 05:36:25;;;;;;;19.00;14.70;;;;;;;36.23;44.83;101296.47;5028743;28;20430;-78
2022/06/20 05:38:56;;;;;;;25.50;15.80;;;;;;;36.23;44.55;101301.06;5033474;28;20422;-80
2022/06/20 05:41:23;;;;;;;25.23;13.10;;;;;;;36.16;44.38;101295.19;5029886;28;20423;-79
2022/06/20 05:43:49;;;;;;;35.73;15.60;;;;;;;36.10;44.69;101299.84;5032467;28;20506;-81
2022/06/20 05:46:27;;;;;;;22.53;13.37;;;;;;;36.12;44.84;101300.34;5032744;28;20427;-73
2022/06/20 05:48:56;;;;;;;30.47;14.43;;;;;;;36.15;44.37;101304.38;5033206;28;20470;-75
2022/06/20 05:51:25;;;;;;;24.60;12.23;;;;;;;36.15;44.65;101305.16;5033388;28;20419;-74
2022/06/20 05:54:11;;;;;;;14.43;9.60;;;;;;;36.12;44.74;101305.75;5033141;28;20423;-76
2022/06/20 05:56:45;;;;;;;20.60;11.80;;;;;;;36.12;44.82;101305.75;5034792;28;20490;-72
2022/06/20 05:59:27;;;;;;;21.00;11.13;;;;;;;36.08;44.72;101306.59;5033386;28;20435;-73
2022/06/20 06:02:10;;;;;;;24.10;13.33;;;;;;;36.20;44.48;101309.72;5032981;28;20427;-72
2022/06/20 06:04:45;;;;;;;30.97;14.73;;;;;;;36.22;44.64;101302.16;5016505;28;20955;-74
2022/06/20 06:07:21;;;;;;;24.07;13.30;;;;;;;36.17;45.08;101300.31;5030990;28;20992;-73
2022/06/20 06:09:51;;;;;;;37.63;15.70;;;;;;;36.22;45.28;101305.66;5031537;28;20463;-73
2022/06/20 06:12:42;;;;;;;24.57;13.07;;;;;;;36.17;45.60;101307.59;5031376;28;20830;-71
2022/06/20 06:15:29;;;;;;;25.73;13.27;;;;;;;36.17;45.21;101307.59;5029455;28;20446;-72
2022/06/20 06:18:03;;;;;;;37.00;16.10;;;;;;;36.23;45.59;101303.78;5039684;28;20925;-75
2022/06/20 06:20:31;;;;;;;32.90;17.97;;;;;;;36.30;45.32;101301.53;5033206;28;20459;-77
2022/06/20 06:23:06;;;;;;;33.60;14.50;;;;;;;36.29;45.01;101295.34;5031624;28;20416;-76
2022/06/20 06:25:36;;;;;;;18.40;11.23;;;;;;;36.26;44.83;101295.88;5011815;28;20432;-77
2022/06/20 06:28:24;;;;;;;27.83;15.03;;;;;;;36.32;45.08;101297.47;5012796;28;20790;-76
2022/06/20 06:30:56;;;;;;;26.47;12.67;;;;;;;36.37;44.88;101301.22;5012928;28;20503;-76
2022/06/20 06:33:41;;;;;;;28.73;12.93;;;;;;;36.37;45.04;101306.59;5013041;28;20913;-75
2022/06/20 06:36:26;;;;;;;28.60;12.47;;;;;;;36.42;44.96;101303.91;5012938;28;20447;-75
2022/06/20 06:39:20;;;;;;;24.70;12.23;;;;;;;36.49;44.74;101298.97;5013147;28;20448;-78
2022/06/20 06:41:51;;;;;;;24.87;12.83;;;;;;;36.50;44.19;101308.66;5012481;28;20475;-78
2022/06/20 06:44:40;;;;;;;22.23;10.40;;;;;;;36.53;44.59;101306.22;5013410;28;20452;-79
2022/06/20 06:47:38;;;;;;;34.67;15.27;;;;;;;36.53;44.53;101311.63;5013142;28;20425;-77
2022/06/20 06:50:22;;;;;;;19.13;10.63;;;;;;;36.39;44.83;101313.34;5027757;28;20427;-75
2022/06/20 06:53:01;;;;;;;19.57;10.80;;;;;;;36.41;44.88;101311.19;5031595;28;20474;-75
2022/06/20 06:55:38;;;;;;;20.80;11.00;;;;;;;36.47;44.82;101320.06;5030060;28;20852;-75
2022/06/20 06:58:33;;;;;;;18.47;11.40;;;;;;;36.41;45.25;101330.13;5029259;28;20447;-74
2022/06/20 07:01:12;;;;;;;22.93;11.90;;;;;;;36.41;45.12;101332.81;5006316;28;20424;-74
2022/06/20 07:03:53;;;;;;;29.80;11.67;;;;;;;36.44;44.69;101339.53;5028838;28;20478;-75
2022/06/20 07:06:37;;;;;;;22.00;10.47;;;;;;;36.44;44.53;101351.16;5028628;28;20493;-77
2022/06/20 07:09:19;;;;;;;15.87;9.10;;;;;;;36.30;44.82;101344.75;5028797;28;20463;-76
2022/06/20 07:12:00;;;;;;;25.20;10.27;;;;;;;36.41;44.91;101350.94;5028865;28;21029;-76
2022/06/20 07:14:29;;;;;;;18.03;10.50;;;;;;;36.48;44.63;101348.69;5029071;28;20411;-74
2022/06/20 07:17:07;;;;;;;31.37;12.50;;;;;;;36.57;44.66;101353.19;5030784;28;20431;-77
2022/06/20 07:19:37;;;;;;;22.63;9.90;;;;;;;36.53;44.05;101364.88;5030693;28;20467;-73
2022/06/20 07:22:05;;;;;;;28.80;10.47;;;;;;;36.54;44.36;101361.88;5031139;28;20412;-79
2022/06/20 07:24:37;;;;;;;27.33;13.40;;;;;;;36.56;44.35;101356.19;5030384;28;20431;-78
2022/06/20 07:27:16;;;;;;;19.40;13.20;;;;;;;36.46;44.86;101361.66;5026979;28;20529;-80
2022/06/20 07:30:05;;;;;;;25.40;14.47;;;;;;;36.48;44.98;101356.81;5029956;28;20473;-81
2022/06/20 07:32:55;;;;;;;31.57;14.40;;;;;;;36.33;45.82;101369.31;5032566;28;20783;-81
2022/06/20 07:35:33;;;;;;;24.73;13.03;;;;;;;36.41;46.09;101372.53;5030798;28;20947;-81
2022/06/20 07:38:12;;;;;;;23.57;10.27;;;;;;;36.46;45.06;101376.00;5030625;28;20437;-82
2022/06/20 07:40:49;;;;;;;18.37;11.97;;;;;;;36.50;44.79;101376.22;5029467;28;20484;-81
2022/06/20 07:43:33;;;;;;;20.73;9.47;;;;;;;36.62;45.02;101379.34;5026390;28;20427;-81
2022/06/20 07:46:07;;;;;;;15.10;10.50;;;;;;;36.62;44.12;101367.75;5027414;28;20944;-75
2022/06/20 07:48:37;;;;;;;16.93;10.27;;;;;;;36.55;44.47;101382.41;5031583;28;20835;-81
2022/06/20 07:51:14;;;;;;;20.77;11.57;;;;;;;36.51;44.56;101375.94;5031591;28;20519;-80
2022/06/20 07:53:45;;;;;;;17.27;11.70;;;;;;;36.55;44.23;101370.78;5031444;28;20861;-74
2022/06/20 07:56:18;;;;;;;14.13;9.30;;;;;;;36.62;44.05;101365.03;5029219;28;20789;-76
2022/06/20 07:58:54;;;;;;;15.07;8.70;;;;;;;36.48;44.63;101379.22;5031605;28;20427;-85
2022/06/20 08:01:30;;;;;;;17.13;9.27;;;;;;;36.59;44.63;101377.25;5031756;28;20457;-85
2022/06/20 08:04:02;;;;;;;16.37;12.40;;;;;;;36.47;44.79;101377.63;5037654;28;20416;-73
2022/06/20 08:06:57;;;;;;;18.60;10.40;;;;;;;36.44;44.48;101374.66;5031329;28;20450;-76
2022/06/20 08:09:32;;;;;;;17.20;7.70;;;;;;;36.52;44.74;101372.16;5032401;28;20497;-75
2022/06/20 08:12:20;;;;;;;15.50;9.63;;;;;;;36.62;44.51;101373.94;5029570;28;20837;-74
2022/06/20 08:14:58;;;;;;;18.73;8.57;;;;;;;36.66;44.34;101372.31;5031540;28;20423;-75
2022/06/20 08:17:25;;;;;;;22.93;9.97;;;;;;;36.76;44.59;101377.59;5030688;28;20423;-76
2022/06/20 08:19:51;;;;;;;16.60;8.70;;;;;;;36.82;44.12;101378.34;5014325;28;20463;-75
2022/06/20 08:22:27;;;;;;;13.93;9.20;;;;;;;36.80;44.30;101373.22;5032034;28;20443;-73
2022/06/20 08:25:24;;;;;;;16.53;10.50;;;;;;;36.81;44.81;101372.13;5030356;28;20434;-75
2022/06/20 08:28:03;;;;;;;16.67;9.70;;;;;;;36.88;44.33;101371.03;5029383;28;20431;-75
2022/06/20 08:30:45;;;;;;;20.17;9.70;;;;;;;36.90;43.88;101379.69;5019342;28;20432;-75
2022/06/20 08:33:31;;;;;;;13.60;7.90;;;;;;;36.96;43.71;101383.94;5028622;28;20419;-76
2022/06/20 08:36:03;;;;;;;12.60;7.67;;;;;;;36.97;43.74;101380.94;5036287;28;20424;-76
2022/06/20 08:38:44;;;;;;;12.10;7.30;;;;;;;36.96;44.24;101392.03;5027011;28;20438;-81
2022/06/20 08:41:44;;;;;;;12.67;8.90;;;;;;;36.97;44.11;101391.75;5026973;28;20463;-76
2022/06/20 08:44:22;;;;;;;12.70;8.97;;;;;;;36.73;44.09;101394.41;5027368;28;20438;-75
2022/06/20 08:47:18;;;;;;;17.53;12.40;;;;;;;36.76;44.48;101384.91;5030217;28;20423;-75
2022/06/20 08:50:12;;;;;;;15.97;8.70;;;;;;;36.95;43.67;101382.28;5031833;28;20975;-74
2022/06/20 08:53:16;;;;;;;15.50;8.30;;;;;;;36.98;43.34;101384.44;5034546;28;20449;-75
2022/06/20 08:56:10;;;;;;;15.20;8.90;;;;;;;36.95;43.35;101399.31;4985235;28;20538;-75
2022/06/20 08:58:55;;;;;;;11.53;7.60;;;;;;;36.82;44.17;101406.19;5034209;28;20451;-74
2022/06/20 09:01:43;;;;;;;12.53;8.63;;;;;;;36.96;44.00;101410.97;5035770;28;20421;-75
2022/06/20 09:04:27;;;;;;;11.53;7.80;;;;;;;36.98;43.80;101417.69;5034337;28;20412;-75
2022/06/20 09:06:59;;;;;;;28.73;9.13;;;;;;;36.90;43.58;101422.94;5034308;28;20461;-75
2022/06/20 09:09:43;;;;;;;13.87;8.43;;;;;;;36.65;44.29;101430.16;5033949;28;20554;-74
2022/06/20 09:12:33;;;;;;;9.40;6.93;;;;;;;36.80;44.58;101430.00;5035621;28;20411;-74
2022/06/20 09:15:23;;;;;;;16.90;9.43;;;;;;;36.86;44.25;101433.47;5034022;28;20427;-75
2022/06/20 09:18:15;;;;;;;18.83;9.07;;;;;;;36.95;43.95;101426.38;5034154;28;20498;-75
2022/06/20 09:21:19;;;;;;;14.77;7.33;;;;;;;36.94;43.87;101424.75;5033846;28;20479;-74
2022/06/20 09:24:06;;;;;;;13.97;8.37;;;;;;;37.04;43.97;101418.44;4996720;28;20422;-75
2022/06/20 09:27:04;;;;;;;12.10;8.67;;;;;;;36.94;44.53;101415.84;5034324;28;20821;-75
2022/06/20 09:29:33;;;;;;;10.70;8.37;;;;;;;36.97;44.61;101418.78;5033758;28;20562;-74
2022/06/20 09:32:20;;;;;;;14.60;8.80;;;;;;;37.02;44.62;101415.25;5035200;28;20438;-74
2022/06/20 09:35:31;;;;;;;18.23;8.63;;;;;;;37.05;44.17;101415.47;5033665;28;20982;-76
2022/06/20 09:38:12;;;;;;;15.07;8.07;;;;;;;36.90;43.94;101407.50;5033718;28;20518;-74
2022/06/20 09:40:56;;;;;;;10.93;7.73;;;;;;;36.94;44.10;101416.66;5033710;28;20514;-75
2022/06/20 09:43:49;;;;;;;15.23;7.87;;;;;;;37.05;44.22;101412.75;5033788;28;20427;-74
2022/06/20 09:46:39;;;;;;;18.50;9.13;;;;;;;36.82;45.04;101410.78;5033593;28;20518;-74
2022/06/20 09:49:52;;;;;;;17.37;8.67;;;;;;;36.82;44.36;101410.78;5033589;28;20546;-75
2022/06/20 09:52:43;;;;;;;13.40;8.03;;;;;;;36.96;44.49;101411.78;5033232;28;20462;-75
2022/06/20 09:55:43;;;;;;;13.37;8.13;;;;;;;36.98;44.62;101414.19;5033373;28;20410;-75
2022/06/20 09:58:16;;;;;;;11.40;7.40;;;;;;;36.99;44.15;101419.31;5034601;28;20497;-75
2022/06/20 10:01:07;;;;;;;16.87;7.80;;;;;;;37.07;44.09;101424.06;5032955;28;20423;-76
2022/06/20 10:03:54;;;;;;;12.50;6.83;;;;;;;36.94;44.56;101419.34;5033232;28;20488;-76
2022/06/20 10:06:39;;;;;;;20.93;8.07;;;;;;;37.03;44.43;101430.38;5033073;28;20459;-72
2022/06/20 10:09:17;;;;;;;17.00;9.97;;;;;;;37.10;44.57;101437.03;5033102;28;20557;-70
2022/06/20 10:11:52;;;;;;;16.63;9.00;;;;;;;37.07;44.48;101440.31;5033210;28;21008;-71
2022/06/20 10:14:38;;;;;;;31.53;8.00;;;;;;;37.09;44.20;101442.75;5034331;28;20442;-72
2022/06/20 10:17:26;;;;;;;10.60;7.00;;;;;;;37.04;44.56;101440.09;5034426;28;20490;-72
2022/06/20 10:20:08;;;;;;;14.50;8.83;;;;;;;37.10;44.21;101431.63;5032744;28;20486;-71
2022/06/20 10:22:56;;;;;;;12.60;7.60;;;;;;;37.05;44.47;101428.97;5034258;28;20411;-71
2022/06/20 10:25:46;;;;;;;12.77;7.97;;;;;;;37.13;44.27;101425.63;5032802;28;20458;-72
2022/06/20 10:28:42;;;;;;;9.53;6.40;;;;;;;37.23;44.53;101429.34;5032833;28;20892;-71
2022/06/20 10:31:17;;;;;;;12.73;8.53;;;;;;;37.17;44.58;101422.38;5034173;28;20400;-71
2022/06/20 10:34:04;;;;;;;20.60;8.20;;;;;;;37.19;44.46;101428.28;5032576;28;20431;-75
2022/06/20 10:36:50;;;;;;;15.10;7.30;;;;;;;37.25;45.03;101419.81;5034164;28;20429;-72
2022/06/20 10:39:28;;;;;;;11.63;7.30;;;;;;;37.33;44.24;101421.91;5032721;28;20442;-72
2022/06/20 10:42:19;;;;;;;13.60;7.53;;;;;;;37.26;44.01;101417.94;5032599;28;20909;-76
2022/06/20 10:45:06;;;;;;;14.40;8.70;;;;;;;37.35;44.54;101422.47;5032481;28;20412;-75
2022/06/20 10:47:40;;;;;;;10.70;7.40;;;;;;;37.37;44.20;101412.13;5032440;28;20562;-75
2022/06/20 10:50:15;;;;;;;18.13;9.77;;;;;;;37.31;44.36;101410.56;5032275;28;20471;-74
2022/06/20 10:53:09;;;;;;;19.07;9.80;;;;;;;37.17;44.73;101406.94;5032488;28;20423;-76
2022/06/20 10:56:09;;;;;;;18.40;10.00;;;;;;;37.22;44.70;101403.38;5032284;28;20483;-76
2022/06/20 10:59:05;;;;;;;13.83;8.50;;;;;;;36.92;45.03;101397.22;5032091;28;20448;-74
2022/06/20 11:01:55;;;;;;;15.90;8.00;;;;;;;37.10;44.55;101385.66;5032079;28;20846;-73
2022/06/20 11:04:53;;;;;;;11.50;9.27;;;;;;;37.26;44.53;101389.00;5033485;28;20415;-74
2022/06/20 11:07:38;;;;;;;17.80;8.53;;;;;;;37.22;44.63;101381.75;4978596;28;20831;-76
2022/06/20 11:10:17;;;;;;;14.20;7.50;;;;;;;37.32;44.77;101387.00;5032021;28;20459;-75
2022/06/20 11:12:56;;;;;;;12.90;8.50;;;;;;;37.18;44.63;101380.69;5031146;28;20431;-76
2022/06/20 11:15:42;;;;;;;14.33;9.67;;;;;;;37.22;44.14;101376.34;5032148;28;20936;-74
2022/06/20 11:19:06;;;;;;;13.93;8.70;;;;;;;37.30;44.08;101376.47;5031950;28;20431;-74
2022/06/20 11:21:50;;;;;;;13.67;8.37;;;;;;;37.31;44.06;101372.69;4961830;28;20509;-74
2022/06/20 11:24:31;;;;;;;20.20;10.67;;;;;;;37.11;44.28;101368.31;5032072;28;20431;-75
2022/06/20 11:27:14;;;;;;;23.77;9.97;;;;;;;37.31;44.60;101359.16;5031503;28;20551;-75
2022/06/20 11:29:52;;;;;;;14.40;7.80;;;;;;;37.32;44.81;101359.94;5031666;28;20914;-75
2022/06/20 11:32:33;;;;;;;18.10;10.50;;;;;;;37.30;45.23;101351.34;5031560;28;20431;-76
2022/06/20 11:35:06;;;;;;;13.80;9.37;;;;;;;37.19;44.64;101353.34;5031529;28;20431;-74
2022/06/20 11:38:02;;;;;;;12.60;8.60;;;;;;;37.18;44.92;101348.25;5032896;28;20395;-74
2022/06/20 11:40:34;;;;;;;14.90;9.87;;;;;;;37.04;45.24;101346.25;5031149;28;20462;-74
2022/06/20 11:43:38;;;;;;;15.30;10.07;;;;;;;37.12;45.94;101328.56;5031370;28;20423;-74
2022/06/20 11:46:28;;;;;;;15.13;10.70;;;;;;;37.24;45.38;101326.25;4971680;28;20997;-74
2022/06/20 11:49:00;;;;;;;14.73;8.97;;;;;;;37.12;45.99;101320.44;5029886;28;20459;-76
2022/06/20 11:51:43;;;;;;;17.67;9.67;;;;;;;37.07;45.84;101309.69;5031082;28;20505;-76
2022/06/20 11:54:48;;;;;;;16.77;10.97;;;;;;;37.09;45.71;101308.31;5031157;28;20420;-77
2022/06/20 11:57:23;;;;;;;14.43;10.00;;;;;;;36.92;46.06;101307.97;5030965;28;20967;-76
2022/06/20 12:00:32;;;;;;;14.73;9.17;;;;;;;37.11;45.79;101306.13;5032517;28;20458;-75
2022/06/20 12:03:19;;;;;;;23.97;8.60;;;;;;;37.20;45.30;101309.00;5031115;28;20426;-76
2022/06/20 12:06:17;;;;;;;13.43;8.87;;;;;;;37.30;44.87;101302.63;5031103;28;20458;-77
2022/06/20 12:08:54;;;;;;;17.10;10.10;;;;;;;37.21;45.57;101294.38;5030826;28;20585;-76
2022/06/20 12:11:31;;;;;;;33.43;10.30;;;;;;;37.33;44.97;101292.03;5032206;28;20423;-76
2022/06/20 12:14:24;;;;;;;15.80;8.27;;;;;;;37.28;45.60;101294.81;5031399;28;20477;-75
2022/06/20 12:17:26;;;;;;;15.10;8.77;;;;;;;37.34;44.91;101293.69;5030842;28;20443;-76